Time;durP1;ratioP1;P1;durP2;ratioP2;P2;SDS_P1;SDS_P2;PMS_P1;PMS_P2;Temp;Humidity;BMP_temperature;BMP_pressure;BME280_temperature;BME280_humidity;BME280_pressure;Samples;Min_cycle;Max_cycle;Signal;HPM_P1;HPM_P2
2022/05/19 00:01:02;;;;;;;6.47;4.00;;;19.20;97.80;;;;;;6226557;23;20012;-72
2022/05/19 00:03:28;;;;;;;8.77;4.30;;;19.00;97.60;;;;;;6230980;22;20135;-71
2022/05/19 00:05:54;;;;;;;7.95;4.22;;;19.00;97.80;;;;;;6228739;22;20008;-71
2022/05/19 00:08:19;;;;;;;6.50;4.03;;;18.90;97.80;;;;;;6231113;22;20019;-71
2022/05/19 00:10:45;;;;;;;8.38;3.97;;;19.00;98.00;;;;;;6230537;22;20050;-72
2022/05/19 00:13:10;;;;;;;8.10;3.95;;;19.10;97.80;;;;;;6227994;23;20107;-71
2022/05/19 00:15:36;;;;;;;8.38;3.90;;;19.40;97.40;;;;;;6228371;22;20004;-73
2022/05/19 00:18:01;;;;;;;8.45;4.18;;;19.50;97.10;;;;;;6219231;22;20000;-73
2022/05/19 00:20:27;;;;;;;9.35;4.45;;;19.20;96.90;;;;;;6216791;22;20001;-74
2022/05/19 00:22:54;;;;;;;5.82;4.18;;;19.50;97.00;;;;;;6218198;22;20008;-74
2022/05/19 00:25:20;;;;;;;4.38;3.60;;;19.40;96.90;;;;;;6221866;22;20419;-74
2022/05/19 00:27:45;;;;;;;4.60;3.88;;;19.50;97.10;;;;;;6224097;22;20004;-74
2022/05/19 00:30:11;;;;;;;8.80;4.05;;;19.40;97.10;;;;;;6218783;22;20460;-74
2022/05/19 00:32:37;;;;;;;12.70;4.43;;;19.40;97.20;;;;;;6219539;22;20052;-74
2022/05/19 00:35:02;;;;;;;5.25;3.40;;;19.30;97.40;;;;;;6224987;22;20071;-74
2022/05/19 00:37:28;;;;;;;4.78;4.20;;;19.20;97.50;;;;;;6230908;22;20052;-74
2022/05/19 00:39:54;;;;;;;6.93;4.43;;;19.20;97.60;;;;;;6226821;22;20004;-74
2022/05/19 00:45:04;;;;;;;6.45;4.40;;;18.90;98.00;;;;;;6215924;23;20012;-74
2022/05/19 00:47:37;;;;;;;7.35;4.43;;;18.90;98.10;;;;;;6216439;23;20012;-74
2022/05/19 00:50:03;;;;;;;7.70;4.55;;;18.80;98.30;;;;;;6218228;23;20414;-73
2022/05/19 00:52:36;;;;;;;11.32;4.47;;;18.80;98.40;;;;;;6224093;22;20087;-74
2022/05/19 00:55:06;;;;;;;10.13;4.90;;;18.70;98.50;;;;;;6218405;23;20440;-74
2022/05/19 00:57:32;;;;;;;5.60;4.82;;;18.70;98.40;;;;;;6219938;22;20020;-74
2022/05/19 01:00:02;;;;;;;7.63;4.55;;;18.70;98.50;;;;;;6213294;23;20220;-74
2022/05/19 01:02:31;;;;;;;7.95;4.38;;;18.70;98.40;;;;;;6216971;23;20030;-74
2022/05/19 01:05:01;;;;;;;4.97;3.80;;;18.90;98.20;;;;;;6221126;23;20001;-74
2022/05/19 01:07:55;;;;;;;4.65;4.22;;;18.90;98.00;;;;;;6217674;23;20589;-74
2022/05/19 01:10:20;;;;;;;7.65;3.80;;;19.00;97.90;;;;;;6213117;22;20031;-74
2022/05/19 01:12:47;;;;;;;7.18;3.70;;;19.10;97.70;;;;;;6220072;22;20460;-74
2022/05/19 01:15:13;;;;;;;7.35;4.20;;;19.20;97.60;;;;;;6219834;22;20127;-74
2022/05/19 01:17:39;;;;;;;6.45;4.50;;;19.20;97.60;;;;;;6223598;23;20079;-73
2022/05/19 01:20:16;;;;;;;5.63;4.07;;;19.20;97.60;;;;;;6217240;22;20000;-74
2022/05/19 01:23:06;;;;;;;9.05;4.53;;;19.20;97.70;;;;;;6219706;22;20087;-73
2022/05/19 01:26:01;;;;;;;10.95;4.35;;;19.10;97.80;;;;;;6216207;23;20653;-74
2022/05/19 01:28:27;;;;;;;6.18;4.10;;;19.00;97.90;;;;;;6186413;22;20063;-74
2022/05/19 01:30:53;;;;;;;5.28;4.30;;;19.00;98.00;;;;;;6217513;23;20399;-74
2022/05/19 01:33:18;;;;;;;6.60;3.95;;;19.00;98.20;;;;;;6227310;22;20232;-74
2022/05/19 01:35:44;;;;;;;6.55;4.30;;;19.00;98.20;;;;;;6223808;22;20004;-73
2022/05/19 01:38:18;;;;;;;9.52;5.07;;;19.00;98.20;;;;;;6223944;22;20008;-74
2022/05/19 01:41:09;;;;;;;6.63;4.13;;;19.00;98.20;;;;;;6217859;22;20373;-73
2022/05/19 01:43:56;;;;;;;8.50;4.50;;;18.90;98.30;;;;;;6215259;23;20365;-73
2022/05/19 01:46:49;;;;;;;7.22;4.70;;;18.90;98.30;;;;;;6215922;23;20008;-73
2022/05/19 01:49:38;;;;;;;9.35;4.57;;;19.00;98.30;;;;;;6220059;23;20460;-73
2022/05/19 01:52:35;;;;;;;4.50;4.07;;;19.00;98.40;;;;;;6168334;22;20052;-73
2022/05/19 01:55:24;;;;;;;6.50;4.15;;;18.80;98.60;;;;;;6203733;23;20092;-73
2022/05/19 01:58:03;;;;;;;6.22;4.47;;;18.90;98.50;;;;;;6215016;23;20008;-74
2022/05/19 02:00:28;;;;;;;4.93;4.40;;;18.80;98.50;;;;;;6222767;22;20000;-74
2022/05/19 02:03:32;;;;;;;6.82;4.28;;;18.80;98.60;;;;;;6215502;23;20004;-74
2022/05/19 02:06:20;;;;;;;6.47;4.60;;;18.70;98.80;;;;;;6213952;23;20032;-73
2022/05/19 02:08:54;;;;;;;10.25;5.47;;;18.70;98.70;;;;;;6214489;23;20283;-73
2022/05/19 02:11:26;;;;;;;7.10;4.72;;;18.70;98.80;;;;;;6214173;23;20036;-73
2022/05/19 02:13:52;;;;;;;8.48;4.72;;;18.60;98.90;;;;;;6216484;23;20035;-73
2022/05/19 02:16:18;;;;;;;5.50;4.30;;;18.60;98.90;;;;;;6218826;22;20015;-73
2022/05/19 02:18:43;;;;;;;7.75;4.90;;;18.50;98.90;;;;;;6212323;23;20103;-73
2022/05/19 02:21:09;;;;;;;7.32;4.80;;;18.50;98.80;;;;;;6216329;23;20008;-73
2022/05/19 02:23:35;;;;;;;5.57;4.72;;;18.60;98.80;;;;;;6221751;22;20024;-74
2022/05/19 02:26:01;;;;;;;8.45;4.75;;;18.50;98.90;;;;;;6217228;23;20039;-73
2022/05/19 02:28:30;;;;;;;7.50;4.43;;;18.50;98.70;;;;;;6221661;23;20106;-73
2022/05/19 02:30:56;;;;;;;6.10;3.97;;;18.70;98.50;;;;;;6213255;23;20436;-72
2022/05/19 02:33:21;;;;;;;5.97;4.00;;;18.70;98.20;;;;;;6216142;22;20016;-73
2022/05/19 02:35:47;;;;;;;8.07;4.15;;;18.90;97.70;;;;;;6215394;22;20639;-73
2022/05/19 02:38:13;;;;;;;6.05;3.58;;;18.90;97.80;;;;;;6216055;22;20000;-73
2022/05/19 02:40:39;;;;;;;7.05;4.07;;;19.10;97.20;;;;;;6219374;22;20031;-72
2022/05/19 02:43:05;;;;;;;5.63;4.10;;;19.20;97.00;;;;;;6219137;22;20004;-73
2022/05/19 02:45:30;;;;;;;6.07;4.35;;;19.30;96.60;;;;;;6219311;22;20023;-73
2022/05/19 02:47:56;;;;;;;5.20;3.80;;;19.30;96.50;;;;;;6220076;22;20580;-72
2022/05/19 02:50:22;;;;;;;9.20;4.35;;;19.40;96.50;;;;;;6216090;22;20568;-73
2022/05/19 02:52:48;;;;;;;8.65;3.97;;;19.40;96.50;;;;;;6222471;22;20004;-73
2022/05/19 03:00:24;;;;;;;6.20;3.83;;;19.10;97.00;;;;;;6225009;22;20276;-59
2022/05/19 03:02:50;;;;;;;6.45;3.90;;;19.00;97.20;;;;;;6218882;23;20008;-61
2022/05/19 03:05:18;;;;;;;5.80;3.95;;;19.00;97.10;;;;;;6212247;23;20012;-61
2022/05/19 03:07:43;;;;;;;8.18;4.65;;;19.00;97.10;;;;;;6222399;22;20004;-61
2022/05/19 03:10:09;;;;;;;8.98;4.35;;;18.90;97.30;;;;;;6219794;23;20034;-62
2022/05/19 03:12:34;;;;;;;6.43;3.97;;;18.90;97.30;;;;;;6223230;23;20096;-61
2022/05/19 03:15:00;;;;;;;8.00;4.13;;;18.90;97.40;;;;;;6218431;23;20004;-62
2022/05/19 03:17:25;;;;;;;5.70;4.18;;;18.90;97.40;;;;;;6215887;23;20039;-62
2022/05/19 03:19:54;;;;;;;5.32;4.10;;;18.80;97.50;;;;;;6215863;23;20011;-61
2022/05/19 03:22:20;;;;;;;5.20;4.10;;;18.80;97.50;;;;;;6219784;22;20023;-61
2022/05/19 03:24:46;;;;;;;11.55;5.00;;;18.80;97.60;;;;;;6223865;23;20004;-61
2022/05/19 03:27:11;;;;;;;16.70;4.10;;;18.80;97.40;;;;;;6220304;23;20315;-61
2022/05/19 03:29:37;;;;;;;6.40;4.15;;;18.80;97.50;;;;;;6217281;23;20436;-61
2022/05/19 03:32:03;;;;;;;7.22;4.18;;;18.80;97.50;;;;;;6215626;23;20534;-60
2022/05/19 03:34:28;;;;;;;5.63;4.18;;;18.70;97.60;;;;;;6216969;22;20266;-61
2022/05/19 03:36:54;;;;;;;6.28;4.07;;;18.70;97.70;;;;;;6220485;23;20309;-61
2022/05/19 03:39:19;;;;;;;9.90;4.53;;;18.70;97.60;;;;;;6218618;23;20000;-61
2022/05/19 03:41:45;;;;;;;5.30;4.20;;;18.70;97.60;;;;;;6215736;23;20492;-61
2022/05/19 03:44:11;;;;;;;5.28;3.67;;;18.70;97.70;;;;;;6213755;22;20004;-61
2022/05/19 03:46:36;;;;;;;4.93;4.05;;;18.70;97.70;;;;;;6220107;22;20016;-61
2022/05/19 03:49:02;;;;;;;6.32;4.05;;;18.70;97.70;;;;;;6219448;22;20206;-61
2022/05/19 03:51:29;;;;;;;12.75;4.82;;;18.60;97.90;;;;;;6211618;22;20011;-61
2022/05/19 03:53:54;;;;;;;5.93;3.83;;;18.60;97.90;;;;;;6213816;23;20015;-61
2022/05/19 03:56:21;;;;;;;5.72;4.28;;;18.60;98.00;;;;;;6201283;23;20492;-61
2022/05/19 03:58:46;;;;;;;4.75;4.25;;;18.60;97.90;;;;;;6213575;22;20000;-60
2022/05/19 04:01:12;;;;;;;7.72;4.55;;;18.60;98.00;;;;;;6218767;22;20027;-59
2022/05/19 04:03:37;;;;;;;8.77;4.65;;;18.60;97.90;;;;;;6221493;22;20411;-60
2022/05/19 04:06:03;;;;;;;6.50;4.05;;;18.70;97.70;;;;;;6217574;22;20015;-61
2022/05/19 04:08:29;;;;;;;8.30;4.70;;;18.70;97.60;;;;;;6209419;22;20015;-61
2022/05/19 04:10:55;;;;;;;5.97;4.18;;;18.80;97.60;;;;;;6216432;23;20099;-61
2022/05/19 04:13:20;;;;;;;5.20;4.22;;;18.80;97.80;;;;;;6227155;22;20052;-61
2022/05/19 04:15:46;;;;;;;10.35;4.30;;;18.80;97.40;;;;;;6223631;22;20031;-61
2022/05/19 04:18:11;;;;;;;4.57;3.95;;;18.90;97.30;;;;;;6221986;22;19996;-61
2022/05/19 04:20:37;;;;;;;7.07;4.25;;;18.90;97.10;;;;;;6215424;22;20008;-61
2022/05/19 04:23:02;;;;;;;10.30;4.30;;;19.10;96.80;;;;;;6216737;22;20034;-61
2022/05/19 04:25:29;;;;;;;7.63;3.85;;;19.20;96.60;;;;;;6213457;22;20063;-62
2022/05/19 04:27:54;;;;;;;6.20;3.90;;;19.30;96.30;;;;;;6221624;22;20004;-61
2022/05/19 04:30:20;;;;;;;4.68;4.18;;;19.40;96.00;;;;;;6219355;22;20113;-61
2022/05/19 04:32:45;;;;;;;5.38;3.60;;;19.50;96.00;;;;;;6225792;22;20221;-61
2022/05/19 04:35:11;;;;;;;6.72;4.38;;;19.60;95.60;;;;;;6221154;22;20007;-61
2022/05/19 04:37:37;;;;;;;9.02;4.20;;;19.70;95.50;;;;;;6217804;22;20008;-61
2022/05/19 04:40:03;;;;;;;14.88;4.18;;;19.80;95.40;;;;;;6214257;23;20492;-62
2022/05/19 04:42:29;;;;;;;6.95;3.80;;;19.90;95.20;;;;;;6220366;22;20436;-61
2022/05/19 04:44:55;;;;;;;5.40;3.60;;;19.90;95.00;;;;;;6222791;22;20007;-60
2022/05/19 04:47:20;;;;;;;7.13;3.97;;;20.00;95.00;;;;;;6219497;22;20085;-61
2022/05/19 04:49:46;;;;;;;10.30;3.80;;;20.10;94.90;;;;;;6220790;22;20332;-61
2022/05/19 04:52:11;;;;;;;5.53;3.90;;;20.10;94.90;;;;;;6231384;22;20216;-61
2022/05/19 04:54:37;;;;;;;9.20;3.90;;;20.10;94.80;;;;;;6229914;22;20687;-61
2022/05/19 04:57:03;;;;;;;6.72;4.07;;;20.10;94.90;;;;;;6236003;22;20428;-61
2022/05/19 04:59:28;;;;;;;9.50;4.93;;;20.10;94.80;;;;;;6232525;22;20391;-61
2022/05/19 05:01:53;;;;;;;8.70;4.45;;;19.80;96.40;;;;;;6233881;22;20466;-61
2022/05/19 05:04:19;;;;;;;12.43;4.72;;;19.60;96.40;;;;;;6234178;22;20000;-61
2022/05/19 05:06:45;;;;;;;9.27;4.70;;;19.80;95.40;;;;;;6232124;22;20012;-61
2022/05/19 05:09:10;;;;;;;11.95;4.55;;;19.80;95.60;;;;;;6235802;22;20008;-61
2022/05/19 05:11:37;;;;;;;13.45;4.70;;;19.80;95.80;;;;;;6233071;22;20004;-61
2022/05/19 05:14:03;;;;;;;13.90;5.22;;;19.70;96.40;;;;;;6234972;22;20003;-61
2022/05/19 05:16:28;;;;;;;7.18;4.95;;;19.70;96.60;;;;;;6233570;22;20012;-61
2022/05/19 05:18:54;;;;;;;7.20;4.78;;;19.60;96.90;;;;;;6233814;22;20170;-61
2022/05/19 05:21:23;;;;;;;10.65;5.05;;;19.60;97.10;;;;;;6232075;22;20000;-61
2022/05/19 05:23:48;;;;;;;10.30;4.80;;;19.70;96.60;;;;;;6228477;23;20000;-61
2022/05/19 05:26:14;;;;;;;7.15;4.22;;;19.80;96.60;;;;;;6228375;22;20444;-62
2022/05/19 05:28:39;;;;;;;12.75;4.63;;;20.00;96.30;;;;;;6223871;22;20019;-62
2022/05/19 05:31:05;;;;;;;6.40;4.25;;;20.50;95.50;;;;;;6229819;22;20018;-61
2022/05/19 05:33:31;;;;;;;9.82;4.63;;;21.30;94.10;;;;;;6233486;22;20130;-61
2022/05/19 05:35:56;;;;;;;13.88;4.22;;;21.50;93.60;;;;;;6231147;22;20621;-62
2022/05/19 05:38:22;;;;;;;6.55;4.43;;;22.00;93.40;;;;;;6234706;22;20240;-61
2022/05/19 05:40:50;;;;;;;10.30;5.35;;;22.30;92.20;;;;;;6230170;22;20786;-62
2022/05/19 05:43:19;;;;;;;9.85;5.00;;;22.70;91.10;;;;;;6202852;23;20018;-62
2022/05/19 05:45:45;;;;;;;9.50;5.38;;;22.70;90.80;;;;;;6225089;23;20083;-62
2022/05/19 05:48:11;;;;;;;13.25;5.35;;;23.00;90.40;;;;;;6218646;22;20058;-62
2022/05/19 05:50:37;;;;;;;8.23;5.60;;;23.40;89.20;;;;;;6226015;22;20004;-61
2022/05/19 05:53:03;;;;;;;12.35;5.80;;;23.60;86.90;;;;;;6233179;22;20005;-61
2022/05/19 05:55:29;;;;;;;10.02;4.55;;;24.70;84.00;;;;;;6232172;22;20010;-61
2022/05/19 05:57:54;;;;;;;9.65;4.80;;;25.30;76.50;;;;;;6233838;22;20336;-61
2022/05/19 06:00:20;;;;;;;10.25;4.45;;;25.90;74.70;;;;;;6230932;22;20008;-60
2022/05/19 06:02:46;;;;;;;11.63;4.30;;;26.20;71.20;;;;;;6229891;22;20099;-61
2022/05/19 06:05:12;;;;;;;6.50;4.55;;;26.20;71.00;;;;;;6223468;22;20000;-61
2022/05/19 06:07:38;;;;;;;8.90;3.78;;;26.80;67.90;;;;;;6160963;22;20384;-61
2022/05/19 06:10:03;;;;;;;7.15;3.80;;;27.60;65.10;;;;;;6234618;22;20008;-61
2022/05/19 06:12:29;;;;;;;9.32;4.13;;;27.70;63.60;;;;;;6232691;22;20618;-61
2022/05/19 06:14:56;;;;;;;8.38;4.32;;;27.70;63.50;;;;;;6233989;22;20106;-61
2022/05/19 06:17:24;;;;;;;7.93;4.10;;;26.50;66.50;;;;;;6232735;22;20015;-61
2022/05/19 06:19:50;;;;;;;8.52;4.50;;;27.00;66.80;;;;;;6235395;22;20000;-61
2022/05/19 06:22:16;;;;;;;6.88;3.83;;;27.20;67.20;;;;;;6231728;22;20063;-61
2022/05/19 06:24:41;;;;;;;7.15;4.10;;;27.80;63.70;;;;;;6232301;22;20000;-61
2022/05/19 06:27:07;;;;;;;8.25;4.15;;;27.90;63.60;;;;;;6229845;22;20011;-61
2022/05/19 06:29:32;;;;;;;7.97;3.65;;;28.90;60.00;;;;;;6231376;22;20004;-61
2022/05/19 06:31:58;;;;;;;10.27;4.47;;;28.70;59.80;;;;;;6231088;22;20016;-61
2022/05/19 06:34:23;;;;;;;7.30;3.97;;;28.60;59.00;;;;;;6232603;22;20546;-61
2022/05/19 06:36:49;;;;;;;6.35;4.07;;;28.20;59.90;;;;;;6231959;22;20046;-61
2022/05/19 06:39:17;;;;;;;6.00;4.15;;;28.30;59.90;;;;;;6234728;22;20099;-61
2022/05/19 06:42:02;;;;;;;8.57;4.68;;;27.90;62.40;;;;;;6232873;22;20137;-61
2022/05/19 06:44:32;;;;;;;7.50;4.10;;;26.90;65.10;;;;;;6231974;22;20436;-61
2022/05/19 06:46:58;;;;;;;7.30;4.18;;;26.50;67.50;;;;;;6230482;22;20008;-61
2022/05/19 06:49:23;;;;;;;9.35;4.35;;;26.80;69.30;;;;;;6233786;22;20458;-61
2022/05/19 06:51:49;;;;;;;7.72;4.55;;;26.60;70.10;;;;;;6230364;22;20011;-61
2022/05/19 06:54:14;;;;;;;8.27;4.03;;;26.50;70.00;;;;;;6229870;22;20549;-57
2022/05/19 06:56:40;;;;;;;5.07;4.00;;;26.80;71.70;;;;;;6231611;22;20530;-58
2022/05/19 06:59:07;;;;;;;8.98;4.35;;;27.40;68.40;;;;;;6230777;22;20004;-58
2022/05/19 07:01:32;;;;;;;7.35;4.07;;;27.50;65.30;;;;;;6229704;22;20117;-58
2022/05/19 07:03:58;;;;;;;9.27;4.55;;;27.80;64.50;;;;;;6231370;22;20488;-58
2022/05/19 07:06:24;;;;;;;7.25;4.43;;;27.90;60.20;;;;;;6229517;22;20008;-58
2022/05/19 07:08:49;;;;;;;9.30;4.00;;;28.00;58.20;;;;;;6231479;23;20083;-57
2022/05/19 07:11:27;;;;;;;10.90;4.28;;;28.10;57.70;;;;;;6229086;22;20083;-58
2022/05/19 07:14:06;;;;;;;11.98;4.75;;;28.80;55.70;;;;;;6231100;22;20008;-60
2022/05/19 07:16:32;;;;;;;6.90;4.00;;;29.20;55.70;;;;;;6216106;22;20015;-62
2022/05/19 07:21:45;;;;;;;9.20;4.15;;;29.40;54.60;;;;;;6220451;23;20109;-63
2022/05/19 07:24:16;;;;;;;8.60;4.25;;;28.50;55.70;;;;;;6223626;22;20004;-62
2022/05/19 07:26:45;;;;;;;10.07;4.22;;;27.20;58.90;;;;;;6225625;22;20065;-63
2022/05/19 07:29:11;;;;;;;5.50;4.22;;;27.40;61.10;;;;;;6229533;22;20015;-63
2022/05/19 07:31:36;;;;;;;5.68;3.50;;;28.80;60.10;;;;;;6226798;22;20004;-62
2022/05/19 07:34:03;;;;;;;6.90;3.53;;;30.70;54.90;;;;;;6232225;22;20103;-63
2022/05/19 07:36:29;;;;;;;10.18;4.05;;;30.50;53.30;;;;;;6224127;22;20417;-64
2022/05/19 07:38:56;;;;;;;8.52;4.00;;;29.50;54.20;;;;;;6229124;22;20004;-63
2022/05/19 07:41:22;;;;;;;9.07;3.83;;;29.70;53.10;;;;;;6227571;22;20391;-63
2022/05/19 07:43:47;;;;;;;12.57;3.88;;;29.40;54.60;;;;;;6233481;22;20008;-64
2022/05/19 07:46:13;;;;;;;8.27;3.72;;;30.50;52.70;;;;;;6230925;22;20015;-64
2022/05/19 07:48:38;;;;;;;7.85;3.47;;;30.20;52.60;;;;;;6233009;22;20007;-64
2022/05/19 07:51:04;;;;;;;7.03;3.97;;;29.80;53.80;;;;;;6232948;22;20011;-64
2022/05/19 07:53:30;;;;;;;7.60;3.85;;;29.00;55.10;;;;;;6233852;22;20423;-64
2022/05/19 07:55:55;;;;;;;9.68;4.15;;;28.30;54.70;;;;;;6233502;22;20373;-63
2022/05/19 07:58:21;;;;;;;8.73;3.92;;;27.90;57.30;;;;;;6231500;22;20008;-64
2022/05/19 08:00:46;;;;;;;6.32;3.97;;;27.20;60.90;;;;;;6231076;22;20420;-63
2022/05/19 08:03:13;;;;;;;7.47;3.72;;;27.30;60.40;;;;;;6231905;22;20152;-63
2022/05/19 08:05:39;;;;;;;10.25;3.63;;;28.00;59.70;;;;;;6233679;22;20011;-63
2022/05/19 08:08:05;;;;;;;7.63;3.72;;;29.30;56.90;;;;;;6135892;22;19996;-63
2022/05/19 08:10:30;;;;;;;7.38;3.33;;;30.50;55.00;;;;;;6234529;22;20004;-63
2022/05/19 08:15:41;;;;;;;5.20;3.55;;;31.00;52.60;;;;;;6234064;23;20683;-64
2022/05/19 08:18:17;;;;;;;5.20;3.75;;;33.10;49.70;;;;;;6232163;22;20001;-64
2022/05/19 08:20:48;;;;;;;7.25;3.85;;;31.40;50.60;;;;;;6234306;22;20329;-64
2022/05/19 08:23:24;;;;;;;11.80;3.97;;;30.50;52.70;;;;;;6233049;22;20004;-64
2022/05/19 08:25:50;;;;;;;7.57;3.53;;;31.30;52.30;;;;;;6234986;22;20077;-64
2022/05/19 08:28:17;;;;;;;10.70;4.10;;;31.70;52.10;;;;;;6231680;22;20480;-64
2022/05/19 08:30:43;;;;;;;9.60;3.88;;;32.90;50.60;;;;;;6231172;22;20003;-64
2022/05/19 08:33:09;;;;;;;9.45;3.47;;;34.00;48.20;;;;;;6228510;22;20432;-59
2022/05/19 08:35:35;;;;;;;10.75;4.10;;;32.80;47.80;;;;;;6233378;23;20004;-58
2022/05/19 08:38:01;;;;;;;7.55;3.70;;;30.80;51.90;;;;;;6231633;22;20054;-57
2022/05/19 08:40:26;;;;;;;5.63;3.40;;;31.00;52.00;;;;;;6234239;22;20023;-57
2022/05/19 08:42:54;;;;;;;5.63;3.67;;;31.30;52.80;;;;;;6229403;23;20442;-57
2022/05/19 08:45:29;;;;;;;9.85;3.72;;;32.00;51.60;;;;;;6233847;22;20023;-57
2022/05/19 08:48:12;;;;;;;8.27;3.58;;;32.50;49.70;;;;;;6230243;23;20010;-58
2022/05/19 08:50:42;;;;;;;6.20;4.18;;;32.20;49.90;;;;;;6232797;23;20004;-58
2022/05/19 08:53:11;;;;;;;4.50;3.58;;;32.70;49.50;;;;;;6228852;23;20103;-57
2022/05/19 08:55:39;;;;;;;8.10;3.20;;;32.70;49.00;;;;;;6230216;22;20490;-58
2022/05/19 08:58:33;;;;;;;6.50;3.08;;;33.40;47.80;;;;;;6228745;22;20027;-58
2022/05/19 09:01:04;;;;;;;;;;;33.00;49.60;;;;;;6218304;23;20653;-58
2022/05/19 09:03:34;;;;;;;8.80;3.55;;;31.00;51.50;;;;;;6229994;23;19950;-57
2022/05/19 09:06:27;;;;;;;13.30;3.22;;;30.30;50.50;;;;;;6228897;23;20428;-57
2022/05/19 09:09:02;;;;;;;8.63;3.60;;;31.20;51.10;;;;;;6146411;23;20101;-57
2022/05/19 09:11:38;;;;;;;7.22;3.17;;;29.80;51.20;;;;;;6227303;23;20103;-58
2022/05/19 09:14:19;;;;;;;6.68;3.08;;;30.40;50.70;;;;;;6227386;22;20436;-58
2022/05/19 09:16:44;;;;;;;8.55;3.83;;;31.30;49.20;;;;;;6234258;22;20009;-58
2022/05/19 09:19:46;;;;;;;4.90;3.08;;;31.00;48.60;;;;;;6228960;22;20363;-57
2022/05/19 09:22:13;;;;;;;5.57;3.03;;;30.60;50.20;;;;;;6222807;23;20005;-57
2022/05/19 09:24:39;;;;;;;4.68;3.33;;;31.40;49.30;;;;;;6227758;22;20016;-58
2022/05/19 09:27:05;;;;;;;4.97;3.15;;;31.90;48.10;;;;;;6227589;23;20094;-57
2022/05/19 09:29:41;;;;;;;7.90;3.53;;;31.80;48.60;;;;;;6227664;22;20070;-58
2022/05/19 09:32:14;;;;;;;11.88;3.58;;;31.60;49.00;;;;;;6232708;22;20008;-58
2022/05/19 09:34:46;;;;;;;9.02;3.33;;;31.00;49.70;;;;;;6229429;22;20015;-58
2022/05/19 09:37:40;;;;;;;7.25;3.60;;;31.00;50.30;;;;;;6231359;23;20015;-58
2022/05/19 09:40:12;;;;;;;3.75;3.00;;;31.50;49.60;;;;;;6218134;23;20464;-57
2022/05/19 09:43:04;;;;;;;7.55;3.35;;;31.50;49.10;;;;;;6233604;22;20058;-58
2022/05/19 09:45:29;;;;;;;6.78;3.20;;;31.30;49.60;;;;;;6231208;22;20000;-58
2022/05/19 09:48:03;;;;;;;5.78;3.60;;;31.70;49.10;;;;;;6231102;23;20016;-58
2022/05/19 09:50:31;;;;;;;6.10;3.17;;;31.60;49.20;;;;;;6229437;23;20004;-57
2022/05/19 09:53:02;;;;;;;10.25;3.53;;;32.00;48.00;;;;;;6234586;22;20405;-57
2022/05/19 09:55:27;;;;;;;8.23;3.78;;;31.70;49.40;;;;;;6231688;22;20004;-57
2022/05/19 09:58:02;;;;;;;7.50;3.17;;;32.30;47.80;;;;;;6233474;22;20500;-57
2022/05/19 10:00:40;;;;;;;8.73;3.67;;;31.30;49.10;;;;;;6231401;22;20039;-57
2022/05/19 10:03:30;;;;;;;9.15;3.35;;;31.40;49.20;;;;;;6230718;23;20039;-57
2022/05/19 10:05:57;;;;;;;6.70;3.17;;;32.00;48.70;;;;;;6233315;23;20015;-57
2022/05/19 10:08:35;;;;;;;6.93;3.40;;;32.10;47.80;;;;;;6142566;22;20000;-57
2022/05/19 10:11:13;;;;;;;8.65;3.33;;;32.30;47.50;;;;;;6235286;22;20031;-57
2022/05/19 10:13:43;;;;;;;7.68;3.40;;;31.90;47.70;;;;;;6235165;22;20087;-57
2022/05/19 10:16:20;;;;;;;5.57;3.28;;;32.50;47.40;;;;;;6234425;22;20015;-57
2022/05/19 10:18:58;;;;;;;9.18;3.15;;;32.40;47.50;;;;;;6233478;22;20004;-57
2022/05/19 10:21:48;;;;;;;7.43;3.22;;;32.00;47.60;;;;;;6232824;22;20046;-57
2022/05/19 10:24:19;;;;;;;6.45;3.25;;;32.10;48.80;;;;;;6234439;22;20004;-57
2022/05/19 10:32:53;;;;;;;10.40;3.70;;;32.80;49.00;;;;;;6231978;23;20119;-60
2022/05/19 10:35:26;;;;;;;10.85;3.40;;;34.10;48.10;;;;;;6232563;23;20100;-57
2022/05/19 10:38:16;;;;;;;7.77;3.40;;;33.30;47.50;;;;;;6230576;22;20600;-57
2022/05/19 10:40:51;;;;;;;8.07;3.95;;;33.10;48.00;;;;;;6231958;23;20007;-57
2022/05/19 10:43:33;;;;;;;7.28;3.55;;;33.40;46.40;;;;;;6231078;22;20090;-57
2022/05/19 10:45:59;;;;;;;6.22;3.40;;;32.60;47.80;;;;;;6229770;23;20005;-57
2022/05/19 10:48:49;;;;;;;22.20;3.75;;;32.40;47.90;;;;;;6229014;23;20003;-57
2022/05/19 10:51:33;;;;;;;9.15;3.13;;;32.30;47.50;;;;;;6232110;22;20010;-57
2022/05/19 10:54:28;;;;;;;7.35;4.15;;;32.00;48.80;;;;;;6232168;23;20000;-57
2022/05/19 10:57:36;;;;;;;6.22;3.67;;;31.10;50.40;;;;;;6222852;22;20012;-57
2022/05/19 11:00:38;;;;;;;5.13;3.10;;;31.50;49.20;;;;;;6197667;22;20016;-58
2022/05/19 11:03:10;;;;;;;6.30;3.50;;;32.50;48.90;;;;;;6149206;22;20010;-57
2022/05/19 11:05:48;;;;;;;9.45;3.22;;;31.40;49.20;;;;;;6233238;23;20620;-58
2022/05/19 11:08:19;;;;;;;9.80;3.28;;;31.80;49.60;;;;;;6231124;23;20474;-59
2022/05/19 11:10:53;;;;;;;7.78;3.78;;;31.60;48.70;;;;;;6235875;22;20035;-58
2022/05/19 11:13:51;;;;;;;12.90;3.88;;;30.80;50.40;;;;;;6228905;22;20027;-58
2022/05/19 11:16:30;;;;;;;9.38;3.40;;;31.40;49.70;;;;;;6208998;23;20015;-58
2022/05/19 11:19:23;;;;;;;6.88;3.30;;;31.90;48.80;;;;;;6235507;22;20004;-58
2022/05/19 11:21:51;;;;;;;6.95;3.40;;;32.30;48.40;;;;;;6232384;23;20000;-59
2022/05/19 11:24:24;;;;;;;6.22;3.58;;;31.60;48.50;;;;;;6234315;23;20087;-59
2022/05/19 11:26:54;;;;;;;8.07;3.63;;;31.70;48.80;;;;;;6228684;23;20004;-59
2022/05/19 11:29:31;;;;;;;8.80;3.78;;;32.30;48.80;;;;;;6230179;23;20403;-58
2022/05/19 11:32:23;;;;;;;5.47;3.42;;;32.80;47.90;;;;;;6227365;22;20047;-58
2022/05/19 11:34:50;;;;;;;7.38;3.53;;;32.50;47.70;;;;;;6231967;22;20699;-58
2022/05/19 11:37:38;;;;;;;9.45;3.75;;;32.60;48.10;;;;;;6227651;23;20515;-57
2022/05/19 11:40:17;;;;;;;10.05;3.72;;;32.20;48.90;;;;;;6235021;22;20783;-58
2022/05/19 11:42:54;;;;;;;11.90;4.05;;;31.80;49.30;;;;;;6228770;23;20004;-58
2022/05/19 11:45:33;;;;;;;8.80;4.22;;;31.60;50.10;;;;;;6232960;23;20055;-58
2022/05/19 11:58:09;;;;;;;13.30;3.78;;;31.50;50.60;;;;;;6121981;23;20063;-58
2022/05/19 12:00:56;;;;;;;13.25;3.92;;;31.30;52.00;;;;;;6139851;23;20072;-58
2022/05/19 12:03:48;;;;;;;7.50;3.90;;;32.00;50.20;;;;;;6202629;22;20506;-58
2022/05/19 12:06:17;;;;;;;11.73;4.00;;;32.00;50.40;;;;;;6229272;23;20004;-58
2022/05/19 12:09:16;;;;;;;5.43;3.53;;;31.40;50.50;;;;;;6144186;23;19999;-58
2022/05/19 12:11:45;;;;;;;6.57;3.80;;;31.30;51.30;;;;;;6232120;23;20020;-58
2022/05/19 12:14:10;;;;;;;12.70;3.83;;;31.00;51.50;;;;;;6233605;22;20015;-58
2022/05/19 12:16:48;;;;;;;10.60;4.50;;;31.10;52.00;;;;;;6232592;22;20079;-58
2022/05/19 12:19:36;;;;;;;12.73;4.47;;;30.80;52.40;;;;;;6233148;23;20031;-58
2022/05/19 12:22:06;;;;;;;13.90;4.32;;;31.00;52.50;;;;;;6231182;23;20004;-58
2022/05/19 12:24:36;;;;;;;6.97;4.00;;;31.70;51.60;;;;;;6232940;23;20464;-58
2022/05/19 12:27:18;;;;;;;4.80;3.60;;;31.70;50.20;;;;;;6228764;22;20387;-57
2022/05/19 12:33:11;;;;;;;11.18;3.75;;;30.20;53.50;;;;;;6225837;23;20065;-58
2022/05/19 12:35:37;;;;;;;13.98;4.00;;;29.20;55.20;;;;;;6226626;22;20008;-58
2022/05/19 12:38:04;;;;;;;9.30;3.80;;;29.00;56.30;;;;;;6226712;23;20005;-62
2022/05/19 12:40:52;;;;;;;11.18;4.15;;;28.80;56.50;;;;;;6226300;23;20087;-62
2022/05/19 12:43:21;;;;;;;10.32;3.67;;;28.70;57.30;;;;;;6225224;23;19996;-62
2022/05/19 12:45:51;;;;;;;5.80;3.65;;;28.60;58.10;;;;;;6221075;22;20000;-62
2022/05/19 12:48:18;;;;;;;7.10;3.78;;;28.30;58.30;;;;;;6217933;23;20000;-62
2022/05/19 12:50:51;;;;;;;9.68;3.90;;;28.20;59.00;;;;;;6217889;22;20436;-62
2022/05/19 12:53:23;;;;;;;6.53;3.75;;;28.10;59.90;;;;;;6219610;22;20004;-62
2022/05/19 12:55:54;;;;;;;7.72;3.72;;;28.20;60.10;;;;;;6222471;22;20035;-62
2022/05/19 12:58:39;;;;;;;91.70;6.10;;;28.00;62.00;;;;;;6223297;22;20035;-61
2022/05/19 13:01:21;;;;;;;44.88;3.63;;;23.80;72.30;;;;;;6215774;22;20012;-61
2022/05/19 13:03:52;;;;;;;34.50;3.33;;;22.60;90.30;;;;;;6214330;23;20091;-61
2022/05/19 13:06:19;;;;;;;24.85;2.88;;;21.80;92.40;;;;;;6218791;22;20004;-61
2022/05/19 13:08:54;;;;;;;28.48;2.75;;;21.50;93.90;;;;;;6143152;23;20004;-62
2022/05/19 13:11:27;;;;;;;37.60;6.00;;;20.80;99.50;;;;;;6216441;22;20008;-63
2022/05/19 13:13:56;;;;;;;32.08;7.43;;;17.80;99.90;;;;;;6215785;23;20190;-61
2022/05/19 13:16:45;;;;;;;25.02;7.57;;;18.00;99.90;;;;;;6219380;23;20008;-61
2022/05/19 13:19:14;;;;;;;19.88;7.25;;;17.70;99.90;;;;;;6208001;23;20332;-57
2022/05/19 13:21:57;;;;;;;13.07;5.88;;;18.10;99.90;;;;;;6224566;22;19996;-56
2022/05/19 13:24:24;;;;;;;12.63;4.72;;;18.30;99.90;;;;;;6217826;22;20525;-57
2022/05/19 13:32:25;;;;;;;17.00;4.45;;;17.80;99.90;;;;;;6226897;23;20348;-56
2022/05/19 13:34:52;;;;;;;9.25;4.00;;;17.80;99.90;;;;;;6226608;22;20000;-57
2022/05/19 13:37:37;;;;;;;15.95;3.30;;;18.00;99.90;;;;;;6218866;22;20423;-56
2022/05/19 13:40:09;;;;;;;;;;;18.00;99.90;;;;;;6220851;22;20257;-57
2022/05/19 13:42:35;;;;;;;11.05;3.05;;;18.00;99.90;;;;;;6218095;23;19911;-57